createdAt,value
2023-06-25T00:02:18.325Z,99.90
2023-06-25T00:04:45.444Z,99.90
2023-06-25T00:07:12.715Z,99.90
2023-06-25T00:09:51.754Z,99.90
2023-06-25T00:12:19.041Z,99.90
2023-06-25T00:14:46.177Z,99.90
2023-06-25T00:17:14.564Z,99.90
2023-06-25T00:19:42.839Z,99.90
2023-06-25T00:22:12.450Z,99.90
2023-06-25T00:24:40.284Z,99.90
2023-06-25T00:27:08.392Z,99.90
2023-06-25T00:29:35.929Z,99.90
2023-06-25T00:32:03.818Z,99.90
2023-06-25T00:34:31.011Z,99.90
2023-06-25T00:36:58.901Z,99.90
2023-06-25T00:39:26.108Z,99.90
2023-06-25T00:41:53.362Z,99.90
2023-06-25T00:44:20.615Z,99.90
2023-06-25T00:46:47.893Z,99.90
2023-06-25T00:49:15.054Z,99.90
2023-06-25T00:51:42.412Z,99.90
2023-06-25T00:54:09.713Z,99.90
2023-06-25T00:56:39.162Z,99.90
2023-06-25T00:59:06.495Z,99.90
2023-06-25T01:01:50.960Z,99.90
2023-06-25T01:04:24.264Z,99.90
2023-06-25T01:06:54.360Z,99.90
2023-06-25T01:09:22.311Z,99.90
2023-06-25T01:12:00.643Z,99.90
2023-06-25T01:14:29.603Z,99.90
2023-06-25T01:16:57.646Z,99.90
2023-06-25T01:19:30.990Z,99.90
2023-06-25T01:22:03.040Z,99.90
2023-06-25T01:24:30.997Z,99.90
2023-06-25T01:27:02.285Z,99.90
2023-06-25T01:29:29.656Z,99.90
2023-06-25T01:31:58.760Z,99.90
2023-06-25T01:34:26.205Z,99.90
2023-06-25T01:36:54.241Z,99.90
2023-06-25T01:39:22.465Z,99.90
2023-06-25T01:41:50.240Z,99.90
2023-06-25T01:44:26.013Z,99.90
2023-06-25T01:46:53.240Z,99.90
2023-06-25T01:49:31.793Z,99.90
2023-06-25T01:52:03.946Z,99.90
2023-06-25T01:54:31.201Z,99.90
2023-06-25T01:56:58.632Z,99.90
2023-06-25T01:59:25.832Z,99.90
2023-06-25T02:01:53.992Z,99.90
2023-06-25T02:04:21.472Z,99.90
2023-06-25T02:06:48.905Z,99.90
2023-06-25T02:09:16.192Z,99.90
2023-06-25T02:11:44.168Z,99.90
2023-06-25T02:14:11.358Z,99.90
2023-06-25T02:16:38.786Z,99.90
2023-06-25T02:19:06.125Z,99.90
2023-06-25T02:21:33.239Z,99.90
2023-06-25T02:24:00.369Z,99.90
2023-06-25T02:26:27.505Z,99.90
2023-06-25T02:28:54.751Z,99.90
2023-06-25T02:31:22.502Z,99.90
2023-06-25T02:33:49.796Z,99.90
2023-06-25T02:36:16.960Z,99.90
2023-06-25T02:38:44.191Z,99.90
2023-06-25T02:41:11.300Z,99.90
2023-06-25T02:43:38.405Z,99.90
2023-06-25T02:46:05.556Z,99.90
2023-06-25T02:48:32.689Z,99.90
2023-06-25T02:50:59.964Z,99.90
2023-06-25T02:53:27.153Z,99.90
2023-06-25T02:55:54.334Z,99.90
2023-06-25T02:58:21.485Z,99.90
2023-06-25T03:00:48.787Z,99.90
2023-06-25T03:03:16.110Z,99.90
2023-06-25T03:05:44.178Z,99.90
2023-06-25T03:08:11.583Z,99.90
2023-06-25T03:10:41.518Z,99.90
2023-06-25T03:13:08.851Z,99.90
2023-06-25T03:15:36.224Z,99.90
2023-06-25T03:18:03.753Z,99.90
2023-06-25T03:20:30.925Z,99.90
2023-06-25T03:22:58.067Z,99.90
2023-06-25T03:25:25.348Z,99.90
2023-06-25T03:27:52.521Z,99.90
2023-06-25T03:30:19.837Z,99.90
2023-06-25T03:32:47.121Z,99.90
2023-06-25T03:35:14.399Z,99.90
2023-06-25T03:37:41.640Z,99.90
2023-06-25T03:40:09.493Z,99.90
2023-06-25T03:42:36.620Z,99.90
2023-06-25T03:45:04.503Z,99.90
2023-06-25T03:47:31.788Z,99.90
2023-06-25T03:49:59.091Z,99.90
2023-06-25T03:52:26.198Z,99.90
2023-06-25T03:54:53.296Z,99.90
2023-06-25T03:57:23.754Z,99.90
2023-06-25T03:59:51.095Z,99.90
2023-06-25T04:02:18.356Z,99.90
2023-06-25T04:04:45.696Z,99.90
2023-06-25T04:07:12.881Z,99.90
2023-06-25T04:09:40.159Z,99.90
2023-06-25T04:12:08.026Z,99.90
2023-06-25T04:14:35.319Z,99.90
2023-06-25T04:17:02.660Z,99.90
2023-06-25T04:19:30.831Z,99.90
2023-06-25T04:21:58.057Z,99.90
2023-06-25T04:24:25.284Z,99.90
2023-06-25T04:26:52.494Z,99.90
2023-06-25T04:29:19.706Z,99.90
2023-06-25T04:31:46.926Z,99.90
2023-06-25T04:34:14.159Z,99.90
2023-06-25T04:36:41.261Z,99.90
2023-06-25T04:39:08.520Z,99.90
2023-06-25T04:41:35.753Z,99.90
2023-06-25T04:44:02.894Z,99.90
2023-06-25T04:46:30.123Z,99.90
2023-06-25T04:48:57.360Z,99.90
2023-06-25T04:51:24.659Z,99.90
2023-06-25T04:53:51.938Z,99.90
2023-06-25T04:56:19.212Z,99.90
2023-06-25T04:58:46.415Z,99.90
2023-06-25T05:01:13.586Z,99.90
2023-06-25T05:03:41.769Z,99.90
2023-06-25T05:06:09.005Z,99.90
2023-06-25T05:08:36.242Z,99.90
2023-06-25T05:11:06.461Z,99.90
2023-06-25T05:13:33.999Z,99.90
2023-06-25T05:16:01.235Z,99.90
2023-06-25T05:18:28.393Z,99.90
2023-06-25T05:20:55.911Z,99.90
2023-06-25T05:23:23.262Z,99.90
2023-06-25T05:25:50.434Z,99.90
2023-06-25T05:28:17.644Z,99.90
2023-06-25T05:30:45.020Z,99.90
2023-06-25T05:33:12.776Z,99.90
2023-06-25T05:35:40.129Z,99.90
2023-06-25T05:38:08.991Z,99.90
2023-06-25T05:40:36.250Z,99.90
2023-06-25T05:43:03.529Z,99.90
2023-06-25T05:45:30.757Z,99.90
2023-06-25T05:47:58.014Z,99.90
2023-06-25T05:50:25.307Z,99.90
2023-06-25T05:52:53.378Z,99.90
2023-06-25T05:55:20.646Z,99.90
2023-06-25T05:57:47.861Z,99.90
2023-06-25T06:00:15.308Z,99.90
2023-06-25T06:02:42.445Z,99.90
2023-06-25T06:05:09.759Z,99.90
2023-06-25T06:07:37.065Z,99.90
2023-06-25T06:10:04.351Z,99.90
2023-06-25T06:12:31.562Z,99.90
2023-06-25T06:14:58.883Z,99.90
2023-06-25T06:17:26.005Z,99.90
2023-06-25T06:19:54.376Z,99.90
2023-06-25T06:22:22.898Z,99.90
2023-06-25T06:24:50.155Z,99.90
2023-06-25T06:27:17.421Z,99.90
2023-06-25T06:29:44.882Z,99.90
2023-06-25T06:32:12.268Z,99.60
2023-06-25T06:34:39.631Z,98.90
2023-06-25T06:37:07.135Z,99.20
2023-06-25T06:39:35.399Z,98.20
2023-06-25T06:42:02.585Z,97.90
2023-06-25T06:44:29.803Z,96.40
2023-06-25T06:46:57.023Z,96.10
2023-06-25T06:49:24.263Z,96.10
2023-06-25T06:51:51.589Z,95.10
2023-06-25T06:54:18.701Z,94.40
2023-06-25T06:56:45.806Z,92.70
2023-06-25T06:59:13.115Z,93.30
2023-06-25T07:01:40.409Z,92.50
2023-06-25T07:04:07.634Z,91.70
2023-06-25T07:06:34.970Z,92.30
2023-06-25T07:09:02.317Z,93.10
2023-06-25T07:11:29.505Z,92.30
2023-06-25T07:13:56.722Z,92.30
2023-06-25T07:16:23.908Z,92.80
2023-06-25T07:18:51.125Z,91.70
2023-06-25T07:21:18.375Z,91.60
2023-06-25T07:23:45.508Z,91.90
2023-06-25T07:26:13.704Z,92.30
2023-06-25T07:28:40.964Z,92.10
2023-06-25T07:31:08.210Z,91.90
2023-06-25T07:33:35.490Z,92.10
2023-06-25T07:36:02.607Z,91.70
2023-06-25T07:38:29.870Z,91.60
2023-06-25T07:40:57.028Z,91.60
2023-06-25T07:43:24.224Z,90.90
2023-06-25T07:45:51.424Z,90.90
2023-06-25T07:48:18.638Z,90.90
2023-06-25T07:50:45.881Z,90.90
2023-06-25T07:53:13.172Z,90.10
2023-06-25T07:56:00.399Z,90.60
2023-06-25T07:58:29.807Z,90.60
2023-06-25T08:00:57.053Z,91.00
2023-06-25T08:03:24.399Z,90.80
2023-06-25T08:05:52.051Z,90.90
2023-06-25T08:08:19.318Z,90.00
2023-06-25T08:10:46.700Z,89.70
2023-06-25T08:13:13.919Z,90.10
2023-06-25T08:15:41.031Z,89.60
2023-06-25T08:18:08.611Z,87.20
2023-06-25T08:20:35.941Z,88.00
2023-06-25T08:23:03.218Z,88.90
2023-06-25T08:25:32.571Z,87.30
2023-06-25T08:27:59.752Z,88.80
2023-06-25T08:30:26.970Z,87.90
2023-06-25T08:32:54.292Z,87.20
2023-06-25T08:35:21.593Z,86.50
2023-06-25T08:37:49.060Z,86.60
2023-06-25T08:40:16.356Z,86.10
2023-06-25T08:42:43.778Z,86.30
2023-06-25T08:45:12.430Z,87.10
2023-06-25T08:47:40.890Z,87.80
2023-06-25T08:50:11.266Z,87.50
2023-06-25T08:52:39.881Z,86.70
2023-06-25T08:55:11.612Z,87.00
2023-06-25T08:57:38.952Z,86.30
2023-06-25T09:00:09.003Z,84.10
2023-06-25T09:02:36.705Z,83.00
2023-06-25T09:05:15.103Z,84.50
2023-06-25T09:07:46.500Z,83.30
2023-06-25T09:10:14.283Z,84.80
2023-06-25T09:12:45.507Z,82.30
2023-06-25T09:15:12.799Z,82.90
2023-06-25T09:17:40.233Z,82.60
2023-06-25T09:20:08.635Z,82.30
2023-06-25T09:22:49.183Z,82.00
2023-06-25T09:25:16.330Z,82.10
2023-06-25T09:27:43.540Z,80.30
2023-06-25T09:30:14.681Z,81.50
2023-06-25T09:32:55.461Z,82.10
2023-06-25T09:35:24.170Z,82.20
2023-06-25T09:37:52.626Z,81.60
2023-06-25T09:40:20.904Z,81.30
2023-06-25T09:42:50.053Z,81.10
2023-06-25T09:45:17.991Z,80.90
2023-06-25T09:47:48.065Z,81.10
2023-06-25T09:50:24.072Z,80.10
2023-06-25T09:53:05.010Z,80.20
2023-06-25T09:55:37.506Z,78.40
2023-06-25T09:58:05.649Z,80.70
2023-06-25T10:00:35.490Z,81.30
2023-06-25T10:03:05.141Z,80.30
2023-06-25T10:05:33.824Z,77.90
2023-06-25T10:08:01.066Z,78.70
2023-06-25T10:10:30.637Z,78.00
2023-06-25T10:12:57.981Z,77.40
2023-06-25T10:15:37.370Z,78.70
2023-06-25T10:18:07.540Z,78.00
2023-06-25T10:20:36.812Z,77.90
2023-06-25T10:23:10.920Z,77.40
2023-06-25T10:25:41.234Z,77.20
2023-06-25T10:28:15.121Z,76.90
2023-06-25T10:30:48.255Z,78.00
2023-06-25T10:33:17.178Z,77.60
2023-06-25T10:35:49.302Z,78.00
2023-06-25T10:38:17.365Z,78.90
2023-06-25T10:40:44.709Z,79.30
2023-06-25T10:43:20.917Z,79.90
2023-06-25T10:45:58.948Z,78.00
2023-06-25T10:48:27.005Z,79.60
2023-06-25T10:50:54.653Z,80.40
2023-06-25T10:53:24.684Z,79.20
2023-06-25T10:55:54.610Z,78.50
2023-06-25T10:58:25.864Z,78.50
2023-06-25T11:01:00.828Z,77.60
2023-06-25T11:03:28.195Z,78.50
2023-06-25T11:05:58.793Z,78.70
2023-06-25T11:08:26.167Z,79.50
2023-06-25T11:10:53.920Z,77.80
2023-06-25T11:13:21.184Z,77.10
2023-06-25T11:15:48.587Z,76.80
2023-06-25T11:18:16.706Z,76.40
2023-06-25T11:20:44.948Z,76.90
2023-06-25T11:23:15.386Z,77.80
2023-06-25T11:25:43.591Z,78.00
2023-06-25T11:28:14.171Z,77.10
2023-06-25T11:30:44.066Z,78.70
2023-06-25T11:33:19.283Z,78.50
2023-06-25T11:35:52.202Z,77.40
2023-06-25T11:38:29.882Z,78.60
2023-06-25T11:40:58.565Z,77.70
2023-06-25T11:43:26.778Z,79.10
2023-06-25T11:45:54.334Z,80.00
2023-06-25T11:48:21.829Z,80.20
2023-06-25T11:50:54.450Z,80.20
2023-06-25T11:53:21.748Z,80.00
2023-06-25T11:55:48.980Z,80.60
2023-06-25T11:58:16.236Z,80.90
2023-06-25T12:00:45.132Z,81.50
2023-06-25T12:03:12.856Z,81.00
2023-06-25T12:05:40.643Z,79.90
2023-06-25T12:08:08.114Z,80.90
2023-06-25T12:10:35.352Z,81.60
2023-06-25T12:13:02.583Z,80.30
2023-06-25T12:15:29.810Z,79.40
2023-06-25T12:17:57.248Z,79.80
2023-06-25T12:20:24.588Z,79.30
2023-06-25T12:22:51.719Z,80.20
2023-06-25T12:25:18.864Z,82.30
2023-06-25T12:27:46.111Z,81.70
2023-06-25T12:30:15.491Z,82.50
2023-06-25T12:32:42.946Z,83.40
2023-06-25T12:35:10.775Z,83.80
2023-06-25T12:37:38.293Z,83.20
2023-06-25T12:40:07.193Z,82.80
2023-06-25T12:42:34.474Z,83.10
2023-06-25T12:45:01.914Z,84.30
2023-06-25T12:47:29.166Z,85.20
2023-06-25T12:49:56.427Z,84.70
2023-06-25T12:52:23.571Z,85.10
2023-06-25T12:54:50.747Z,84.40
2023-06-25T12:57:17.903Z,84.70
2023-06-25T12:59:45.317Z,84.10
2023-06-25T13:02:12.638Z,85.00
2023-06-25T13:04:39.822Z,84.40
2023-06-25T13:07:07.186Z,83.50
2023-06-25T13:09:34.720Z,82.10
2023-06-25T13:12:01.965Z,80.80
2023-06-25T13:14:29.142Z,79.90
2023-06-25T13:16:56.380Z,78.90
2023-06-25T13:19:23.618Z,77.70
2023-06-25T13:21:50.908Z,77.40
2023-06-25T13:24:18.158Z,77.50
2023-06-25T13:26:46.298Z,77.70
2023-06-25T13:29:13.586Z,78.40
2023-06-25T13:31:40.990Z,79.10
2023-06-25T13:34:08.116Z,78.60
2023-06-25T13:36:35.317Z,78.40
2023-06-25T13:39:02.543Z,76.80
2023-06-25T13:41:30.542Z,75.90
2023-06-25T13:43:58.105Z,75.70
2023-06-25T13:46:25.595Z,76.00
2023-06-25T13:48:52.719Z,75.90
2023-06-25T13:51:19.919Z,76.60
2023-06-25T13:53:48.616Z,77.70
2023-06-25T13:56:16.083Z,77.30
2023-06-25T13:58:43.458Z,77.60
2023-06-25T14:01:10.745Z,76.30
2023-06-25T14:03:38.081Z,75.30
2023-06-25T14:06:05.365Z,76.40
2023-06-25T14:08:32.709Z,76.50
2023-06-25T14:10:59.907Z,77.10
2023-06-25T14:13:27.220Z,76.70
2023-06-25T14:16:06.060Z,76.00
2023-06-25T14:18:41.846Z,76.10
2023-06-25T14:21:09.011Z,76.30
2023-06-25T14:23:36.215Z,75.60
2023-06-25T14:26:07.845Z,76.00
2023-06-25T14:28:35.078Z,75.70
2023-06-25T14:31:02.429Z,76.60
2023-06-25T14:33:31.992Z,78.10
2023-06-25T14:35:59.586Z,77.50
2023-06-25T14:38:26.871Z,77.90
2023-06-25T14:40:54.093Z,78.70
2023-06-25T14:43:21.811Z,77.20
2023-06-25T14:45:49.090Z,77.60
2023-06-25T14:48:16.450Z,76.30
2023-06-25T14:50:43.613Z,76.70
2023-06-25T14:53:10.792Z,76.60
2023-06-25T14:55:41.702Z,76.30
2023-06-25T14:58:09.191Z,75.90
2023-06-25T15:00:36.320Z,75.90
2023-06-25T15:03:03.746Z,76.50
2023-06-25T15:05:31.108Z,77.30
2023-06-25T15:07:58.354Z,76.90
2023-06-25T15:10:25.483Z,76.50
2023-06-25T15:12:52.602Z,76.20
2023-06-25T15:15:19.842Z,76.10
2023-06-25T15:17:48.564Z,75.60
2023-06-25T15:20:15.822Z,74.90
2023-06-25T15:22:43.088Z,74.90
2023-06-25T15:25:10.525Z,74.40
2023-06-25T15:27:37.751Z,74.50
2023-06-25T15:30:05.153Z,73.40
2023-06-25T15:32:32.467Z,72.40
2023-06-25T15:34:59.677Z,72.00
2023-06-25T15:37:26.872Z,69.80
2023-06-25T15:39:56.079Z,67.90
2023-06-25T15:42:23.347Z,67.10
2023-06-25T15:44:50.567Z,67.20
2023-06-25T15:47:18.325Z,67.20
2023-06-25T15:49:46.569Z,67.20
2023-06-25T15:52:13.956Z,68.30
2023-06-25T15:54:41.236Z,68.80
2023-06-25T15:57:08.449Z,70.50
2023-06-25T15:59:35.721Z,71.40
2023-06-25T16:02:02.970Z,71.90
2023-06-25T16:04:31.558Z,72.00
2023-06-25T16:06:58.858Z,72.20
2023-06-25T16:09:26.148Z,72.20
2023-06-25T16:11:54.022Z,72.90
2023-06-25T16:14:21.250Z,74.00
2023-06-25T16:16:48.439Z,74.30
2023-06-25T16:19:42.198Z,75.50
2023-06-25T16:22:02.674Z,74.80
2023-06-25T16:24:29.850Z,75.10
2023-06-25T16:26:57.152Z,73.50
2023-06-25T16:29:24.408Z,75.00
2023-06-25T16:31:52.485Z,75.10
2023-06-25T16:34:19.749Z,74.40
2023-06-25T16:36:46.899Z,75.90
2023-06-25T16:39:14.169Z,76.70
2023-06-25T16:41:41.622Z,76.20
2023-06-25T16:44:08.791Z,76.20
2023-06-25T16:46:37.153Z,77.00
2023-06-25T16:49:04.575Z,78.00
2023-06-25T16:51:31.773Z,76.90
2023-06-25T16:54:05.065Z,78.00
2023-06-25T16:56:34.564Z,77.40
2023-06-25T16:59:02.276Z,78.80
2023-06-25T17:01:29.564Z,78.50
2023-06-25T17:03:56.939Z,80.10
2023-06-25T17:06:24.375Z,79.10
2023-06-25T17:08:51.606Z,79.90
2023-06-25T17:11:18.857Z,80.60
2023-06-25T17:13:46.126Z,79.70
2023-06-25T17:16:13.265Z,79.40
2023-06-25T17:18:40.638Z,80.00
2023-06-25T17:21:08.682Z,80.30
2023-06-25T17:23:35.937Z,80.70
2023-06-25T17:26:03.647Z,80.80
2023-06-25T17:28:30.817Z,81.40
2023-06-25T17:30:58.152Z,81.60
2023-06-25T17:33:25.498Z,81.80
2023-06-25T17:35:52.892Z,81.90
2023-06-25T17:38:21.346Z,82.10
2023-06-25T17:40:48.452Z,82.30
2023-06-25T17:43:16.141Z,82.40
2023-06-25T17:45:43.451Z,82.30
2023-06-25T17:48:10.604Z,82.60
2023-06-25T17:50:37.849Z,82.90
2023-06-25T17:53:04.972Z,83.50
2023-06-25T17:55:32.203Z,83.80
2023-06-25T17:57:59.426Z,84.20
2023-06-25T18:00:26.758Z,84.90
2023-06-25T18:02:54.110Z,85.80
2023-06-25T18:05:23.518Z,86.30
2023-06-25T18:07:50.781Z,86.80
2023-06-25T18:10:18.224Z,87.70
2023-06-25T18:12:46.679Z,88.20
2023-06-25T18:15:13.955Z,89.20
2023-06-25T18:17:43.855Z,90.00
2023-06-25T18:20:12.598Z,90.30
2023-06-25T18:22:40.492Z,90.90
2023-06-25T18:25:08.159Z,91.40
2023-06-25T18:27:35.404Z,92.10
2023-06-25T18:30:02.551Z,92.60
2023-06-25T18:32:29.931Z,93.10
2023-06-25T18:34:57.101Z,93.90
2023-06-25T18:37:24.275Z,94.50
2023-06-25T18:39:51.497Z,95.50
2023-06-25T18:42:18.616Z,96.80
2023-06-25T18:44:46.624Z,98.30
2023-06-25T18:47:14.731Z,99.90
2023-06-25T18:49:41.988Z,99.90
2023-06-25T18:52:09.253Z,99.90
2023-06-25T18:54:36.513Z,99.90
2023-06-25T18:57:03.738Z,99.90
2023-06-25T18:59:33.049Z,99.90
2023-06-25T19:02:08.350Z,99.90
2023-06-25T19:04:38.295Z,99.90
2023-06-25T19:07:05.928Z,99.90
2023-06-25T19:09:35.887Z,99.90
2023-06-25T19:12:03.191Z,99.90
2023-06-25T19:14:30.462Z,99.90
2023-06-25T19:16:58.315Z,99.90
2023-06-25T19:19:26.709Z,99.90
2023-06-25T19:21:54.888Z,99.90
2023-06-25T19:24:22.037Z,99.90
2023-06-25T19:26:49.402Z,99.90
2023-06-25T19:29:16.798Z,99.90
2023-06-25T19:31:44.111Z,99.90
2023-06-25T19:34:13.605Z,99.90
2023-06-25T19:36:40.842Z,99.90
2023-06-25T19:39:08.051Z,99.90
2023-06-25T19:41:35.230Z,99.90
2023-06-25T19:44:02.892Z,99.90
2023-06-25T19:46:30.814Z,99.90
2023-06-25T19:48:58.072Z,99.90
2023-06-25T19:51:25.463Z,99.90
2023-06-25T19:53:52.588Z,99.90
2023-06-25T19:56:19.860Z,99.90
2023-06-25T19:58:47.079Z,99.90
2023-06-25T20:01:14.295Z,99.90
2023-06-25T20:03:41.909Z,99.90
2023-06-25T20:06:09.098Z,99.90
2023-06-25T20:08:36.238Z,99.90
2023-06-25T20:11:05.606Z,99.90
2023-06-25T20:13:36.542Z,99.90
2023-06-25T20:16:07.731Z,99.90
2023-06-25T20:18:39.264Z,99.90
2023-06-25T20:21:10.626Z,99.90
2023-06-25T20:23:41.559Z,99.90
2023-06-25T20:26:09.049Z,99.90
2023-06-25T20:28:36.396Z,99.90
2023-06-25T20:31:03.746Z,99.90
2023-06-25T20:33:32.671Z,99.90
2023-06-25T20:36:03.471Z,99.90
2023-06-25T20:38:32.862Z,99.90
2023-06-25T20:41:16.059Z,99.90
2023-06-25T20:43:51.792Z,99.90
2023-06-25T20:46:22.812Z,99.90
2023-06-25T20:48:51.318Z,99.90
2023-06-25T20:51:21.857Z,99.90
2023-06-25T20:53:52.720Z,99.90
2023-06-25T20:56:23.112Z,99.90
2023-06-25T20:58:54.200Z,99.90
2023-06-25T21:01:24.729Z,99.90
2023-06-25T21:03:55.603Z,99.90
2023-06-25T21:06:26.561Z,99.90
2023-06-25T21:08:53.945Z,99.90
2023-06-25T21:11:24.656Z,99.90
2023-06-25T21:13:55.766Z,99.90
2023-06-25T21:16:27.594Z,99.90
2023-06-25T21:18:57.879Z,99.90
2023-06-25T21:21:28.134Z,99.90
2023-06-25T21:23:58.906Z,99.90
2023-06-25T21:26:29.982Z,99.90
2023-06-25T21:29:00.810Z,99.90
2023-06-25T21:31:31.904Z,99.90
2023-06-25T21:34:02.392Z,99.90
2023-06-25T21:36:29.915Z,99.90
2023-06-25T21:38:57.456Z,99.90
2023-06-25T21:41:24.790Z,99.90
2023-06-25T21:43:53.759Z,99.90
2023-06-25T21:46:23.173Z,99.90
2023-06-25T21:48:50.418Z,99.90
2023-06-25T21:51:17.756Z,99.90
2023-06-25T21:53:45.195Z,99.90
2023-06-25T21:56:12.392Z,99.90
2023-06-25T21:58:40.058Z,99.90
2023-06-25T22:01:07.297Z,99.90
2023-06-25T22:03:39.791Z,99.90
2023-06-25T22:06:11.384Z,99.90
2023-06-25T22:08:44.049Z,99.90
2023-06-25T22:11:16.607Z,99.90
2023-06-25T22:13:47.709Z,99.90
2023-06-25T22:16:20.426Z,99.90
2023-06-25T22:18:52.479Z,99.90
2023-06-25T22:21:25.380Z,99.90
2023-06-25T22:23:56.205Z,99.90
2023-06-25T22:26:29.207Z,99.90
2023-06-25T22:29:01.386Z,99.90
2023-06-25T22:31:36.003Z,99.90
2023-06-25T22:34:08.266Z,99.90
2023-06-25T22:36:40.972Z,99.90
2023-06-25T22:39:13.181Z,99.90
2023-06-25T22:41:46.206Z,99.90
2023-06-25T22:44:18.374Z,99.90
2023-06-25T22:46:51.694Z,99.90
2023-06-25T22:49:24.038Z,99.90
2023-06-25T22:51:56.941Z,99.90
2023-06-25T22:54:29.287Z,99.90
2023-06-25T22:57:02.062Z,99.90
2023-06-25T22:59:34.124Z,99.90
2023-06-25T23:02:06.973Z,99.90
2023-06-25T23:04:38.934Z,99.90
2023-06-25T23:07:11.198Z,99.90
2023-06-25T23:09:42.300Z,99.90
2023-06-25T23:12:16.618Z,99.90
2023-06-25T23:14:49.665Z,99.90
2023-06-25T23:17:22.411Z,99.90
2023-06-25T23:19:56.053Z,99.90
2023-06-25T23:22:29.918Z,99.90
2023-06-25T23:25:09.462Z,99.90
2023-06-25T23:27:47.782Z,99.90
2023-06-25T23:30:15.645Z,99.90
2023-06-25T23:32:43.183Z,99.90
2023-06-25T23:35:12.092Z,99.90
2023-06-25T23:37:40.956Z,99.90
2023-06-25T23:40:12.001Z,99.90
2023-06-25T23:42:39.246Z,99.90
2023-06-25T23:45:06.958Z,99.90
2023-06-25T23:47:34.356Z,99.90
2023-06-25T23:50:02.169Z,99.90
2023-06-25T23:52:29.810Z,99.90
2023-06-25T23:54:57.285Z,99.90
2023-06-25T23:57:24.591Z,99.90
2023-06-25T23:59:51.810Z,99.90
